< Typhoon 197619 1976 Season Typhoon 197621 >
Typhoon 197620 (IRIS)
General InformationTrack Information on Google Maps || Disaster Info.ResourceGoogle EarthGE AnimationAtom FeedGeoJSON
Detalied Best Track (Time Zone = UTC)
Year Month Day Hour Lat. Long. Pressure (hPa) Wind (kt) Class Image Chart
1976 9 13 00 15.0 115.0 1004 0 2 -- Chart
1976 9 13 06 16.0 116.0 1000 0 2 -- Chart
1976 9 13 12 16.0 117.0 1000 0 2 -- Chart
1976 9 13 18 16.0 117.0 1000 0 2 -- Chart
1976 9 14 00 16.0 118.0 1000 0 2 -- Chart
1976 9 14 06 16.0 118.0 1000 0 2 -- Chart
1976 9 14 12 16.0 118.0 1000 0 2 -- Chart
1976 9 14 18 16.0 119.0 1000 0 2 -- Chart
1976 9 15 00 16.0 119.0 1000 0 2 -- Chart
1976 9 15 06 16.1 119.1 994 0 9 -- Chart
1976 9 15 12 16.8 119.1 992 0 9 -- Chart
1976 9 15 18 17.1 118.5 990 0 9 -- Chart
1976 9 16 00 17.8 118.2 990 0 9 -- Chart
1976 9 16 06 18.3 118.0 990 0 9 -- Chart
1976 9 16 12 18.6 117.7 990 0 9 -- Chart
1976 9 16 18 18.8 117.3 990 0 9 -- Chart
1976 9 17 00 19.0 117.0 985 0 9 -- Chart
1976 9 17 06 19.4 116.5 985 0 9 -- Chart
1976 9 17 12 19.5 116.0 975 0 9 -- Chart
1976 9 17 18 19.6 115.7 975 0 9 -- Chart
1976 9 18 00 19.8 115.2 975 0 9 -- Chart
1976 9 18 06 20.0 114.9 975 0 9 -- Chart
1976 9 18 12 20.4 114.4 975 0 9 -- Chart
1976 9 18 18 20.6 113.7 975 0 9 -- Chart
1976 9 19 00 20.9 113.0 975 0 9 -- Chart
1976 9 19 06 21.3 112.3 975 0 9 -- Chart
1976 9 19 12 21.4 111.7 975 0 9 -- Chart
1976 9 19 18 21.5 111.0 975 0 9 -- Chart
1976 9 20 00 21.5 110.6 980 0 9 -- Chart
1976 9 20 06 21.5 110.2 985 0 9 -- Chart
1976 9 20 12 21.4 109.7 985 0 9 -- Chart
1976 9 20 18 21.5 109.5 990 0 9 -- Chart
1976 9 21 00 21.3 109.2 994 0 9 -- Chart
1976 9 21 06 21.4 109.0 998 0 9 -- Chart
1976 9 21 12 21.5 108.7 998 0 9 -- Chart
1976 9 21 18 21.0 108.5 998 0 9 -- Chart
1976 9 22 00 20.0 109.0 1004 0 2 -- Chart
1976 9 22 06 19.5 109.2 1004 0 2 -- Chart
1976 9 22 12 19.0 109.5 1004 0 2 -- Chart
1976 9 22 18 18.5 109.5 1004 0 2 -- Chart
1976 9 23 00 18.0 110.0 1004 0 2 -- Chart
1976 9 23 06 18.0 110.5 1004 0 2 -- Chart
1976 9 23 12 18.0 111.0 1004 0 2 -- Chart
Japan Meteorological Agency Best Track Data | Correction Date : 1992-10-21
< Typhoon 197619 1976 Season Typhoon 197621 >

Help